sensor_id;sensor_type;location;lat;lon;timestamp;pressure;altitude;pressure_sealevel;temperature;humidity
61870;BME280;47810;42.264;23.826;2022-09-09T00:02:17;94174.97;;;16.74;66.22
61870;BME280;47810;42.264;23.826;2022-09-09T00:04:43;94168.97;;;16.61;67.72
61870;BME280;47810;42.264;23.826;2022-09-09T00:07:16;94168.16;;;16.49;67.94
61870;BME280;47810;42.264;23.826;2022-09-09T00:20:13;94172.19;;;16.43;68.40
61870;BME280;47810;42.264;23.826;2022-09-09T00:22:41;94166.84;;;16.43;68.07
61870;BME280;47810;42.264;23.826;2022-09-09T00:25:16;94164.41;;;16.19;68.66
61870;BME280;47810;42.264;23.826;2022-09-09T00:27:46;94171.34;;;16.11;68.96
61870;BME280;47810;42.264;23.826;2022-09-09T00:32:38;94165.00;;;16.23;68.78
61870;BME280;47810;42.264;23.826;2022-09-09T00:37:54;94174.50;;;16.37;67.40
61870;BME280;47810;42.264;23.826;2022-09-09T00:43:01;94170.75;;;16.39;68.33
61870;BME280;47810;42.264;23.826;2022-09-09T00:48:18;94162.72;;;16.50;68.28
61870;BME280;47810;42.264;23.826;2022-09-09T00:55:55;94155.22;;;15.80;70.31
61870;BME280;47810;42.264;23.826;2022-09-09T00:58:25;94157.38;;;15.86;70.00
61870;BME280;47810;42.264;23.826;2022-09-09T01:00:56;94150.56;;;15.93;69.39
61870;BME280;47810;42.264;23.826;2022-09-09T01:10:56;94157.56;;;16.05;69.32
61870;BME280;47810;42.264;23.826;2022-09-09T01:13:24;94149.19;;;16.10;67.87
61870;BME280;47810;42.264;23.826;2022-09-09T01:15:50;94146.66;;;16.09;68.68
61870;BME280;47810;42.264;23.826;2022-09-09T01:18:19;94131.59;;;16.19;68.74
61870;BME280;47810;42.264;23.826;2022-09-09T01:28:10;94137.81;;;16.08;68.97
61870;BME280;47810;42.264;23.826;2022-09-09T01:30:39;94138.44;;;16.00;69.54
61870;BME280;47810;42.264;23.826;2022-09-09T01:33:07;94147.47;;;15.77;69.94
61870;BME280;47810;42.264;23.826;2022-09-09T01:38:06;94155.22;;;15.80;70.08
61870;BME280;47810;42.264;23.826;2022-09-09T01:40:32;94150.63;;;15.71;70.39
61870;BME280;47810;42.264;23.826;2022-09-09T01:42:58;94149.28;;;15.54;71.27
61870;BME280;47810;42.264;23.826;2022-09-09T01:45:24;94138.41;;;15.57;70.18
61870;BME280;47810;42.264;23.826;2022-09-09T01:47:50;94143.59;;;15.58;70.36
61870;BME280;47810;42.264;23.826;2022-09-09T01:50:17;94143.59;;;15.58;70.21
61870;BME280;47810;42.264;23.826;2022-09-09T01:52:44;94145.28;;;15.59;70.51
61870;BME280;47810;42.264;23.826;2022-09-09T01:55:10;94146.00;;;15.61;69.28
61870;BME280;47810;42.264;23.826;2022-09-09T02:00:11;94143.59;;;15.58;70.45
61870;BME280;47810;42.264;23.826;2022-09-09T02:07:40;94155.09;;;15.48;70.60
61870;BME280;47810;42.264;23.826;2022-09-09T02:10:10;94153.53;;;15.45;70.09
61870;BME280;47810;42.264;23.826;2022-09-09T02:12:40;94156.66;;;15.50;70.62
61870;BME280;47810;42.264;23.826;2022-09-09T02:15:11;94148.91;;;15.47;70.98
61870;BME280;47810;42.264;23.826;2022-09-09T02:17:40;94148.06;;;15.58;71.11
61870;BME280;47810;42.264;23.826;2022-09-09T02:20:08;94143.84;;;15.55;70.64
61870;BME280;47810;42.264;23.826;2022-09-09T02:22:35;94134.41;;;15.40;70.50
61870;BME280;47810;42.264;23.826;2022-09-09T02:25:05;94130.28;;;15.47;70.69
61870;BME280;47810;42.264;23.826;2022-09-09T02:27:32;94140.94;;;15.47;70.84
61870;BME280;47810;42.264;23.826;2022-09-09T02:29:58;94138.78;;;15.41;70.34
61870;BME280;47810;42.264;23.826;2022-09-09T02:32:25;94137.81;;;15.42;71.38
61870;BME280;47810;42.264;23.826;2022-09-09T02:34:55;94146.13;;;15.37;70.89
61870;BME280;47810;42.264;23.826;2022-09-09T02:37:25;94142.38;;;15.40;70.68
61870;BME280;47810;42.264;23.826;2022-09-09T02:39:54;94140.56;;;15.41;69.97
61870;BME280;47810;42.264;23.826;2022-09-09T02:42:19;94148.56;;;15.41;71.01
61870;BME280;47810;42.264;23.826;2022-09-09T02:44:45;94153.66;;;15.32;71.10
61870;BME280;47810;42.264;23.826;2022-09-09T02:50:03;94136.72;;;15.33;70.76
61870;BME280;47810;42.264;23.826;2022-09-09T02:52:38;94138.53;;;15.33;70.96
61870;BME280;47810;42.264;23.826;2022-09-09T02:56:08;94151.09;;;15.31;71.81
61870;BME280;47810;42.264;23.826;2022-09-09T02:58:02;94144.09;;;15.30;71.44
61870;BME280;47810;42.264;23.826;2022-09-09T03:00:29;94149.91;;;15.24;71.83
61870;BME280;47810;42.264;23.826;2022-09-09T03:02:56;94143.97;;;15.20;71.43
61870;BME280;47810;42.264;23.826;2022-09-09T03:05:21;94146.53;;;15.22;71.35
61870;BME280;47810;42.264;23.826;2022-09-09T03:07:47;94145.31;;;15.14;71.70
61870;BME280;47810;42.264;23.826;2022-09-09T03:10:13;94143.47;;;15.15;71.92
61870;BME280;47810;42.264;23.826;2022-09-09T03:12:38;94147.72;;;15.18;71.27
61870;BME280;47810;42.264;23.826;2022-09-09T03:15:04;94149.41;;;15.07;71.24
61870;BME280;47810;42.264;23.826;2022-09-09T03:17:30;94143.84;;;15.10;71.21
61870;BME280;47810;42.264;23.826;2022-09-09T03:19:56;94144.34;;;15.04;72.12
61870;BME280;47810;42.264;23.826;2022-09-09T03:22:22;94145.31;;;15.14;71.34
61870;BME280;47810;42.264;23.826;2022-09-09T03:24:47;94140.22;;;15.11;71.30
61870;BME280;47810;42.264;23.826;2022-09-09T03:27:13;94136.38;;;15.16;71.00
61870;BME280;47810;42.264;23.826;2022-09-09T03:29:39;94143.50;;;15.26;70.53
61870;BME280;47810;42.264;23.826;2022-09-09T03:32:05;94141.69;;;15.27;70.21
61870;BME280;47810;42.264;23.826;2022-09-09T03:34:31;94153.78;;;15.20;70.35
61870;BME280;47810;42.264;23.826;2022-09-09T03:36:57;94151.34;;;15.17;71.37
61870;BME280;47810;42.264;23.826;2022-09-09T03:39:22;94148.47;;;15.20;70.50
61870;BME280;47810;42.264;23.826;2022-09-09T03:41:48;94151.97;;;15.20;70.16
61870;BME280;47810;42.264;23.826;2022-09-09T03:44:13;94144.59;;;15.24;70.63
61870;BME280;47810;42.264;23.826;2022-09-09T03:46:39;94146.53;;;14.99;71.46
61870;BME280;47810;42.264;23.826;2022-09-09T03:49:04;94144.81;;;14.98;71.24
61870;BME280;47810;42.264;23.826;2022-09-09T03:51:30;94136.38;;;15.16;71.44
61870;BME280;47810;42.264;23.826;2022-09-09T03:53:56;94146.50;;;14.88;72.64
61870;BME280;47810;42.264;23.826;2022-09-09T03:56:23;94141.19;;;14.77;73.40
61870;BME280;47810;42.264;23.826;2022-09-09T03:58:49;94145.84;;;14.38;74.77
61870;BME280;47810;42.264;23.826;2022-09-09T04:01:14;94156.19;;;14.54;74.61
61870;BME280;47810;42.264;23.826;2022-09-09T04:03:43;94160.69;;;14.53;74.16
61870;BME280;47810;42.264;23.826;2022-09-09T04:06:10;94159.47;;;14.57;73.88
61870;BME280;47810;42.264;23.826;2022-09-09T04:08:37;94156.34;;;14.63;73.24
61870;BME280;47810;42.264;23.826;2022-09-09T04:11:04;94146.72;;;14.74;72.56
61870;BME280;47810;42.264;23.826;2022-09-09T04:13:35;94145.47;;;14.66;72.65
61870;BME280;47810;42.264;23.826;2022-09-09T04:16:03;94150.56;;;14.70;73.38
61870;BME280;47810;42.264;23.826;2022-09-09T04:18:29;94143.81;;;14.65;73.67
61870;BME280;47810;42.264;23.826;2022-09-09T04:20:54;94147.19;;;14.67;73.79
61870;BME280;47810;42.264;23.826;2022-09-09T04:23:22;94147.66;;;14.73;72.49
61870;BME280;47810;42.264;23.826;2022-09-09T04:25:50;94149.16;;;14.77;72.70
61870;BME280;47810;42.264;23.826;2022-09-09T04:28:16;94150.84;;;14.78;72.20
61870;BME280;47810;42.264;23.826;2022-09-09T04:30:42;94153.03;;;14.84;72.02
61870;BME280;47810;42.264;23.826;2022-09-09T04:33:08;94157.13;;;14.88;71.65
61870;BME280;47810;42.264;23.826;2022-09-09T04:35:35;94173.59;;;14.93;71.19
61870;BME280;47810;42.264;23.826;2022-09-09T04:38:01;94172.00;;;14.90;71.68
61870;BME280;47810;42.264;23.826;2022-09-09T04:40:28;94177.19;;;14.92;72.30
61870;BME280;47810;42.264;23.826;2022-09-09T04:42:54;94179.75;;;14.94;71.66
61870;BME280;47810;42.264;23.826;2022-09-09T04:45:20;94176.97;;;14.95;72.45
61870;BME280;47810;42.264;23.826;2022-09-09T04:47:46;94176.97;;;14.95;71.65
61870;BME280;47810;42.264;23.826;2022-09-09T04:50:11;94174.44;;;14.94;72.27
61870;BME280;47810;42.264;23.826;2022-09-09T04:52:37;94173.59;;;14.93;73.06
61870;BME280;47810;42.264;23.826;2022-09-09T04:55:03;94170.94;;;15.04;73.62
61870;BME280;47810;42.264;23.826;2022-09-09T04:57:29;94170.09;;;15.04;72.88
61870;BME280;47810;42.264;23.826;2022-09-09T04:59:57;94163.78;;;14.94;72.56
61870;BME280;47810;42.264;23.826;2022-09-09T05:02:23;94166.56;;;14.81;73.56
61870;BME280;47810;42.264;23.826;2022-09-09T05:04:51;94165.09;;;14.88;71.78
61870;BME280;47810;42.264;23.826;2022-09-09T05:07:16;94168.03;;;14.96;72.99
61870;BME280;47810;42.264;23.826;2022-09-09T05:09:42;94157.63;;;14.93;72.46
61870;BME280;47810;42.264;23.826;2022-09-09T05:12:10;94152.56;;;15.12;73.47
61870;BME280;47810;42.264;23.826;2022-09-09T05:14:36;94161.16;;;15.16;71.89
61870;BME280;47810;42.264;23.826;2022-09-09T05:17:02;94156.91;;;15.25;72.03
61870;BME280;47810;42.264;23.826;2022-09-09T05:19:29;94167.28;;;15.50;73.54
61870;BME280;47810;42.264;23.826;2022-09-09T05:21:56;94169.72;;;15.31;72.62
61870;BME280;47810;42.264;23.826;2022-09-09T05:24:22;94155.81;;;15.27;72.58
61870;BME280;47810;42.264;23.826;2022-09-09T05:26:50;94143.84;;;15.33;73.79
61870;BME280;47810;42.264;23.826;2022-09-09T05:29:16;94148.44;;;15.42;72.92
61870;BME280;47810;42.264;23.826;2022-09-09T05:31:44;94147.50;;;15.32;73.08
61870;BME280;47810;42.264;23.826;2022-09-09T05:34:09;94153.03;;;15.40;73.89
61870;BME280;47810;42.264;23.826;2022-09-09T05:36:35;94149.66;;;15.49;74.01
61870;BME280;47810;42.264;23.826;2022-09-09T05:39:00;94152.56;;;15.46;73.56
61870;BME280;47810;42.264;23.826;2022-09-09T05:41:26;94149.66;;;15.60;73.88
61870;BME280;47810;42.264;23.826;2022-09-09T05:43:52;94138.25;;;15.58;73.94
61870;BME280;47810;42.264;23.826;2022-09-09T05:46:18;94144.78;;;15.66;74.07
61870;BME280;47810;42.264;23.826;2022-09-09T05:48:45;94139.94;;;15.59;74.42
61870;BME280;47810;42.264;23.826;2022-09-09T05:51:26;94135.09;;;15.76;73.59
61870;BME280;47810;42.264;23.826;2022-09-09T05:53:53;94135.84;;;15.78;73.67
61870;BME280;47810;42.264;23.826;2022-09-09T05:56:24;94132.03;;;15.92;73.98
61870;BME280;47810;42.264;23.826;2022-09-09T05:58:53;94129.28;;;15.82;72.76
61870;BME280;47810;42.264;23.826;2022-09-09T06:01:20;94134.50;;;15.83;72.91
61870;BME280;47810;42.264;23.826;2022-09-09T06:03:46;94146.22;;;15.92;73.90
61870;BME280;47810;42.264;23.826;2022-09-09T06:06:14;94136.75;;;15.99;73.61
61870;BME280;47810;42.264;23.826;2022-09-09T06:08:40;94147.44;;;15.88;73.63
61870;BME280;47810;42.264;23.826;2022-09-09T06:11:08;94142.84;;;15.90;73.33
61870;BME280;47810;42.264;23.826;2022-09-09T06:13:34;94142.09;;;15.99;72.88
61870;BME280;47810;42.264;23.826;2022-09-09T06:16:02;94133.09;;;16.12;73.14
61870;BME280;47810;42.264;23.826;2022-09-09T06:18:28;94139.84;;;16.16;72.88
61870;BME280;47810;42.264;23.826;2022-09-09T06:21:01;94139.59;;;16.19;72.59
61870;BME280;47810;42.264;23.826;2022-09-09T06:23:29;94136.84;;;16.41;71.88
61870;BME280;47810;42.264;23.826;2022-09-09T06:26:01;94136.84;;;16.41;72.04
61870;BME280;47810;42.264;23.826;2022-09-09T06:28:27;94136.31;;;16.47;72.29
61870;BME280;47810;42.264;23.826;2022-09-09T06:31:27;94135.31;;;16.60;71.83
61870;BME280;47810;42.264;23.826;2022-09-09T06:33:48;94138.56;;;16.84;70.63
61870;BME280;47810;42.264;23.826;2022-09-09T06:36:15;94134.66;;;16.88;70.34
61870;BME280;47810;42.264;23.826;2022-09-09T06:38:41;94151.91;;;17.05;70.01
61870;BME280;47810;42.264;23.826;2022-09-09T06:41:08;94145.56;;;17.27;68.33
61870;BME280;47810;42.264;23.826;2022-09-09T06:43:34;94136.09;;;17.23;68.34
61870;BME280;47810;42.264;23.826;2022-09-09T06:46:04;94138.28;;;17.39;68.85
61870;BME280;47810;42.264;23.826;2022-09-09T06:48:30;94147.34;;;17.57;67.84
61870;BME280;47810;42.264;23.826;2022-09-09T06:51:07;94147.91;;;17.61;67.50
61870;BME280;47810;42.264;23.826;2022-09-09T06:53:33;94150.50;;;17.72;67.35
61870;BME280;47810;42.264;23.826;2022-09-09T06:56:00;94151.41;;;17.82;66.46
61870;BME280;47810;42.264;23.826;2022-09-09T06:58:27;94154.38;;;17.89;66.75
61870;BME280;47810;42.264;23.826;2022-09-09T07:01:00;94149.34;;;18.05;66.89
61870;BME280;47810;42.264;23.826;2022-09-09T07:03:26;94144.28;;;18.12;65.22
61870;BME280;47810;42.264;23.826;2022-09-09T07:05:55;94136.28;;;18.31;65.01
61870;BME280;47810;42.264;23.826;2022-09-09T07:08:21;94144.00;;;18.34;65.35
61870;BME280;47810;42.264;23.826;2022-09-09T07:10:47;94141.50;;;18.43;64.50
61870;BME280;47810;42.264;23.826;2022-09-09T07:13:13;94147.25;;;18.67;64.46
61870;BME280;47810;42.264;23.826;2022-09-09T07:15:41;94137.25;;;18.89;64.10
61870;BME280;47810;42.264;23.826;2022-09-09T07:18:06;94132.25;;;19.13;63.12
61870;BME280;47810;42.264;23.826;2022-09-09T07:20:34;94133.66;;;19.27;63.38
61870;BME280;47810;42.264;23.826;2022-09-09T07:23:00;94141.06;;;19.43;62.35
61870;BME280;47810;42.264;23.826;2022-09-09T07:25:25;94140.19;;;19.52;62.23
61870;BME280;47810;42.264;23.826;2022-09-09T07:27:54;94125.72;;;19.72;62.33
61870;BME280;47810;42.264;23.826;2022-09-09T07:30:20;94130.56;;;19.87;61.21
61870;BME280;47810;42.264;23.826;2022-09-09T07:32:45;94135.59;;;19.99;60.37
61870;BME280;47810;42.264;23.826;2022-09-09T07:35:11;94130.47;;;20.06;61.27
61870;BME280;47810;42.264;23.826;2022-09-09T07:37:37;94132.19;;;20.43;60.19
61870;BME280;47810;42.264;23.826;2022-09-09T07:40:03;94129.13;;;20.74;58.45
61870;BME280;47810;42.264;23.826;2022-09-09T07:42:28;94134.81;;;20.88;57.47
61870;BME280;47810;42.264;23.826;2022-09-09T07:44:54;94129.19;;;21.26;55.47
61870;BME280;47810;42.264;23.826;2022-09-09T07:47:20;94138.88;;;21.18;55.40
61870;BME280;47810;42.264;23.826;2022-09-09T07:49:46;94132.69;;;21.44;54.95
61870;BME280;47810;42.264;23.826;2022-09-09T07:52:11;94133.00;;;21.67;54.28
61870;BME280;47810;42.264;23.826;2022-09-09T07:54:37;94134.47;;;22.04;54.12
61870;BME280;47810;42.264;23.826;2022-09-09T07:57:03;94127.69;;;22.26;54.08
61870;BME280;47810;42.264;23.826;2022-09-09T07:59:29;94130.06;;;22.53;50.67
61870;BME280;47810;42.264;23.826;2022-09-09T08:01:55;94124.84;;;22.44;50.98
61870;BME280;47810;42.264;23.826;2022-09-09T08:04:22;94130.28;;;22.60;52.67
61870;BME280;47810;42.264;23.826;2022-09-09T08:06:52;94125.38;;;22.72;50.35
61870;BME280;47810;42.264;23.826;2022-09-09T08:09:18;94123.69;;;22.79;50.39
61870;BME280;47810;42.264;23.826;2022-09-09T08:11:44;94122.19;;;22.85;50.60
61870;BME280;47810;42.264;23.826;2022-09-09T08:14:10;94118.38;;;22.95;49.94
61870;BME280;47810;42.264;23.826;2022-09-09T08:16:37;94119.19;;;23.04;49.95
61870;BME280;47810;42.264;23.826;2022-09-09T08:19:03;94122.69;;;23.21;50.18
61870;BME280;47810;42.264;23.826;2022-09-09T08:21:29;94121.00;;;23.44;49.68
61870;BME280;47810;42.264;23.826;2022-09-09T08:23:58;94122.66;;;23.70;48.03
61870;BME280;47810;42.264;23.826;2022-09-09T08:26:25;94115.72;;;23.76;48.36
61870;BME280;47810;42.264;23.826;2022-09-09T08:28:52;94108.44;;;23.84;47.52
61870;BME280;47810;42.264;23.826;2022-09-09T08:31:20;94109.06;;;23.94;46.84
61870;BME280;47810;42.264;23.826;2022-09-09T08:33:46;94104.19;;;23.98;47.47
61870;BME280;47810;42.264;23.826;2022-09-09T08:36:18;94118.44;;;24.07;47.25
61870;BME280;47810;42.264;23.826;2022-09-09T08:38:51;94105.28;;;24.12;49.10
61870;BME280;47810;42.264;23.826;2022-09-09T08:44:04;94115.28;;;24.66;46.65
61870;BME280;47810;42.264;23.826;2022-09-09T08:49:19;94104.38;;;24.97;46.27
61870;BME280;47810;42.264;23.826;2022-09-09T08:51:45;94107.50;;;25.31;46.43
61870;BME280;47810;42.264;23.826;2022-09-09T08:54:12;94091.94;;;25.48;45.00
61870;BME280;47810;42.264;23.826;2022-09-09T08:56:38;94093.63;;;25.49;44.71
61870;BME280;47810;42.264;23.826;2022-09-09T08:59:04;94082.94;;;25.86;44.12
61870;BME280;47810;42.264;23.826;2022-09-09T09:01:44;94087.75;;;25.75;42.92
61870;BME280;47810;42.264;23.826;2022-09-09T09:12:15;94088.44;;;26.29;42.64
61870;BME280;47810;42.264;23.826;2022-09-09T09:14:41;94088.81;;;26.40;41.65
61870;BME280;47810;42.264;23.826;2022-09-09T09:17:12;94090.59;;;26.69;41.37
61870;BME280;47810;42.264;23.826;2022-09-09T09:19:40;94083.88;;;26.87;41.70
61870;BME280;47810;42.264;23.826;2022-09-09T09:22:52;94081.97;;;26.81;40.67
61870;BME280;47810;42.264;23.826;2022-09-09T09:24:56;94084.50;;;26.46;41.33
61870;BME280;47810;42.264;23.826;2022-09-09T09:29:56;94089.25;;;26.44;41.75
61870;BME280;47810;42.264;23.826;2022-09-09T09:32:23;94085.88;;;26.20;42.88
61870;BME280;47810;42.264;23.826;2022-09-09T09:34:54;94082.34;;;26.41;42.05
61870;BME280;47810;42.264;23.826;2022-09-09T09:37:30;94083.50;;;26.32;41.72
61870;BME280;47810;42.264;23.826;2022-09-09T09:40:07;94091.66;;;26.17;42.93
61870;BME280;47810;42.264;23.826;2022-09-09T09:42:32;94089.19;;;25.86;42.74
61870;BME280;47810;42.264;23.826;2022-09-09T09:45:25;94078.44;;;25.63;43.03
61870;BME280;47810;42.264;23.826;2022-09-09T09:47:44;94080.63;;;25.15;44.92
61870;BME280;47810;42.264;23.826;2022-09-09T09:50:17;94093.09;;;24.93;46.07
61870;BME280;47810;42.264;23.826;2022-09-09T09:52:42;94086.28;;;24.82;45.94
61870;BME280;47810;42.264;23.826;2022-09-09T09:55:18;94086.41;;;24.66;46.20
61870;BME280;47810;42.264;23.826;2022-09-09T09:57:44;94080.53;;;24.62;46.88
61870;BME280;47810;42.264;23.826;2022-09-09T10:00:14;94079.69;;;24.62;46.98
61870;BME280;47810;42.264;23.826;2022-09-09T10:02:41;94073.56;;;24.68;47.71
61870;BME280;47810;42.264;23.826;2022-09-09T10:05:27;94065.63;;;24.90;46.94
61870;BME280;47810;42.264;23.826;2022-09-09T10:13:23;94069.47;;;25.77;45.69
61870;BME280;47810;42.264;23.826;2022-09-09T10:16:10;94067.16;;;26.25;45.17
61870;BME280;47810;42.264;23.826;2022-09-09T10:31:16;94067.63;;;25.93;42.68
61870;BME280;47810;42.264;23.826;2022-09-09T10:36:35;94061.84;;;25.37;45.39
61870;BME280;47810;42.264;23.826;2022-09-09T10:39:06;94062.00;;;25.20;45.97
61870;BME280;47810;42.264;23.826;2022-09-09T10:52:29;94064.59;;;25.28;45.91
61870;BME280;47810;42.264;23.826;2022-09-09T10:54:59;94071.31;;;25.32;46.35
61870;BME280;47810;42.264;23.826;2022-09-09T10:57:41;94072.06;;;25.26;44.50
61870;BME280;47810;42.264;23.826;2022-09-09T11:00:16;94071.84;;;25.13;44.74
61870;BME280;47810;42.264;23.826;2022-09-09T11:02:43;94068.06;;;25.37;45.10
61870;BME280;47810;42.264;23.826;2022-09-09T11:05:16;94059.38;;;25.71;44.32
61870;BME280;47810;42.264;23.826;2022-09-09T11:12:46;94062.56;;;25.30;44.40
61870;BME280;47810;42.264;23.826;2022-09-09T11:15:20;94056.09;;;25.17;45.67
61870;BME280;47810;42.264;23.826;2022-09-09T11:17:50;94053.16;;;25.03;45.76
61870;BME280;47810;42.264;23.826;2022-09-09T11:20:17;94051.25;;;25.12;45.31
61870;BME280;47810;42.264;23.826;2022-09-09T11:22:45;94057.34;;;25.14;47.94
61870;BME280;47810;42.264;23.826;2022-09-09T11:27:55;94050.47;;;25.56;45.16
61870;BME280;47810;42.264;23.826;2022-09-09T11:30:23;94055.41;;;25.52;44.35
61870;BME280;47810;42.264;23.826;2022-09-09T11:33:04;94055.38;;;25.23;45.09
61870;BME280;47810;42.264;23.826;2022-09-09T11:40:43;94043.84;;;25.06;46.77
61870;BME280;47810;42.264;23.826;2022-09-09T11:43:10;94053.16;;;24.89;46.90
61870;BME280;47810;42.264;23.826;2022-09-09T11:45:38;94049.09;;;24.84;47.07
61870;BME280;47810;42.264;23.826;2022-09-09T11:48:04;94052.94;;;24.75;47.31
61870;BME280;47810;42.264;23.826;2022-09-09T11:50:34;94057.31;;;24.76;50.52
61870;BME280;47810;42.264;23.826;2022-09-09T11:53:20;94052.97;;;24.67;47.55
61870;BME280;47810;42.264;23.826;2022-09-09T11:56:05;94044.16;;;24.73;48.77
61870;BME280;47810;42.264;23.826;2022-09-09T11:58:38;94038.66;;;24.67;47.60
61870;BME280;47810;42.264;23.826;2022-09-09T12:01:16;94044.63;;;24.77;50.16
61870;BME280;47810;42.264;23.826;2022-09-09T12:03:51;94048.09;;;24.85;47.94
61870;BME280;47810;42.264;23.826;2022-09-09T12:06:28;94044.47;;;24.93;47.41
61870;BME280;47810;42.264;23.826;2022-09-09T12:09:08;94044.69;;;24.92;46.66
61870;BME280;47810;42.264;23.826;2022-09-09T12:11:36;94042.81;;;25.07;47.68
61870;BME280;47810;42.264;23.826;2022-09-09T12:14:02;94043.34;;;25.25;47.22
61870;BME280;47810;42.264;23.826;2022-09-09T12:16:29;94034.34;;;25.10;47.15
61870;BME280;47810;42.264;23.826;2022-09-09T12:19:41;94030.34;;;25.06;47.04
61870;BME280;47810;42.264;23.826;2022-09-09T12:21:46;94032.69;;;25.09;46.87
61870;BME280;47810;42.264;23.826;2022-09-09T12:24:26;94031.66;;;25.10;45.65
61870;BME280;47810;42.264;23.826;2022-09-09T12:26:57;94020.78;;;24.80;48.17
61870;BME280;47810;42.264;23.826;2022-09-09T12:31:56;94009.78;;;25.20;46.82
61870;BME280;47810;42.264;23.826;2022-09-09T12:34:39;94004.22;;;25.21;46.83
61870;BME280;47810;42.264;23.826;2022-09-09T12:37:06;93992.09;;;25.17;47.40
61870;BME280;47810;42.264;23.826;2022-09-09T12:39:39;93988.53;;;25.02;46.19
61870;BME280;47810;42.264;23.826;2022-09-09T12:42:20;93991.59;;;24.99;44.96
61870;BME280;47810;42.264;23.826;2022-09-09T12:47:18;93976.94;;;24.78;45.34
61870;BME280;47810;42.264;23.826;2022-09-09T12:49:45;93968.84;;;24.93;47.89
61870;BME280;47810;42.264;23.826;2022-09-09T12:55:20;93979.69;;;25.08;48.87
61870;BME280;47810;42.264;23.826;2022-09-09T12:57:47;93976.31;;;25.06;49.18
61870;BME280;47810;42.264;23.826;2022-09-09T13:00:16;93968.19;;;25.06;49.42
61870;BME280;47810;42.264;23.826;2022-09-09T13:02:47;93963.84;;;25.05;49.86
61870;BME280;47810;42.264;23.826;2022-09-09T13:07:48;93956.09;;;25.02;49.62
61870;BME280;47810;42.264;23.826;2022-09-09T13:10:14;93961.00;;;24.83;49.73
61870;BME280;47810;42.264;23.826;2022-09-09T13:12:41;93952.91;;;24.83;50.19
61870;BME280;47810;42.264;23.826;2022-09-09T13:15:21;93953.63;;;24.77;50.20
61870;BME280;47810;42.264;23.826;2022-09-09T13:17:51;93954.94;;;24.81;51.29
61870;BME280;47810;42.264;23.826;2022-09-09T13:20:18;93951.31;;;24.74;51.07
61870;BME280;47810;42.264;23.826;2022-09-09T13:22:44;93949.81;;;24.72;50.47
61870;BME280;47810;42.264;23.826;2022-09-09T13:27:38;93945.84;;;24.82;50.68
61870;BME280;47810;42.264;23.826;2022-09-09T13:30:27;93950.22;;;24.83;50.87
61870;BME280;47810;42.264;23.826;2022-09-09T13:32:59;93956.81;;;24.66;50.77
61870;BME280;47810;42.264;23.826;2022-09-09T13:35:26;93954.47;;;24.63;49.68
61870;BME280;47810;42.264;23.826;2022-09-09T13:37:52;93950.59;;;24.43;49.92
61870;BME280;47810;42.264;23.826;2022-09-09T13:40:21;93948.19;;;24.48;51.31
61870;BME280;47810;42.264;23.826;2022-09-09T13:42:50;93954.25;;;24.50;51.54
61870;BME280;47810;42.264;23.826;2022-09-09T13:45:17;93952.78;;;24.39;51.34
61870;BME280;47810;42.264;23.826;2022-09-09T13:47:46;93949.13;;;24.32;51.08
61870;BME280;47810;42.264;23.826;2022-09-09T13:50:19;93954.78;;;24.22;51.98
61870;BME280;47810;42.264;23.826;2022-09-09T13:52:48;93954.06;;;24.28;51.54
61870;BME280;47810;42.264;23.826;2022-09-09T13:55:17;93948.31;;;24.31;52.35
61870;BME280;47810;42.264;23.826;2022-09-09T13:57:55;93952.31;;;24.35;52.29
61870;BME280;47810;42.264;23.826;2022-09-09T14:00:22;93950.91;;;24.39;51.91
61870;BME280;47810;42.264;23.826;2022-09-09T14:02:49;93947.22;;;24.40;51.91
61870;BME280;47810;42.264;23.826;2022-09-09T14:05:15;93945.28;;;24.49;52.98
61870;BME280;47810;42.264;23.826;2022-09-09T14:07:41;93952.13;;;24.60;55.02
61870;BME280;47810;42.264;23.826;2022-09-09T14:10:07;93940.88;;;24.71;53.67
61870;BME280;47810;42.264;23.826;2022-09-09T14:12:33;93944.41;;;24.57;52.77
61870;BME280;47810;42.264;23.826;2022-09-09T14:14:59;93941.69;;;24.57;52.25
61870;BME280;47810;42.264;23.826;2022-09-09T14:17:27;93929.47;;;24.46;51.82
61870;BME280;47810;42.264;23.826;2022-09-09T14:19:56;93933.66;;;24.49;53.25
61870;BME280;47810;42.264;23.826;2022-09-09T14:22:22;93923.28;;;24.37;52.10
61870;BME280;47810;42.264;23.826;2022-09-09T14:24:48;93925.88;;;24.31;52.63
61870;BME280;47810;42.264;23.826;2022-09-09T14:27:14;93925.03;;;24.30;54.28
61870;BME280;47810;42.264;23.826;2022-09-09T14:29:40;93921.31;;;24.31;54.65
61870;BME280;47810;42.264;23.826;2022-09-09T14:32:07;93915.56;;;24.34;55.59
61870;BME280;47810;42.264;23.826;2022-09-09T14:34:33;93920.06;;;24.19;54.61
61870;BME280;47810;42.264;23.826;2022-09-09T14:36:58;93917.50;;;24.03;55.38
61870;BME280;47810;42.264;23.826;2022-09-09T14:39:24;93904.69;;;24.05;55.47
61870;BME280;47810;42.264;23.826;2022-09-09T14:41:50;93903.22;;;24.17;55.80
61870;BME280;47810;42.264;23.826;2022-09-09T14:44:15;93901.88;;;24.36;54.63
61870;BME280;47810;42.264;23.826;2022-09-09T14:46:41;93889.59;;;24.33;55.09
61870;BME280;47810;42.264;23.826;2022-09-09T14:49:08;93891.34;;;24.26;55.37
61870;BME280;47810;42.264;23.826;2022-09-09T14:51:35;93894.75;;;24.20;55.72
61870;BME280;47810;42.264;23.826;2022-09-09T14:54:01;93890.38;;;24.19;55.44
61870;BME280;47810;42.264;23.826;2022-09-09T14:56:29;93900.72;;;24.15;55.42
61870;BME280;47810;42.264;23.826;2022-09-09T14:58:55;93894.75;;;24.20;56.11
61870;BME280;47810;42.264;23.826;2022-09-09T15:01:21;93890.47;;;24.11;54.93
61870;BME280;47810;42.264;23.826;2022-09-09T15:03:54;93900.97;;;24.06;54.74
61870;BME280;47810;42.264;23.826;2022-09-09T15:06:21;93891.19;;;24.05;55.02